createdAt,value
2018-03-24T00:00:01.125Z,3.55
2018-03-24T00:02:30.219Z,3.45
2018-03-24T00:05:00.704Z,3.29
2018-03-24T00:07:29.782Z,3.30
2018-03-24T00:09:59.063Z,3.39
2018-03-24T00:12:28.058Z,3.38
2018-03-24T00:14:58.390Z,3.29
2018-03-24T00:17:27.534Z,3.16
2018-03-24T00:19:56.741Z,3.05
2018-03-24T00:22:25.817Z,3.02
2018-03-24T00:24:56.053Z,2.98
2018-03-24T00:27:26.223Z,2.91
2018-03-24T00:29:55.735Z,2.86
2018-03-24T00:32:24.968Z,2.84
2018-03-24T00:34:54.017Z,2.77
2018-03-24T00:40:16.788Z,2.56
2018-03-24T00:42:45.979Z,2.58
2018-03-24T00:45:15.351Z,2.57
2018-03-24T00:47:45.176Z,2.50
2018-03-24T00:50:14.413Z,2.50
2018-03-24T00:52:44.962Z,2.35
2018-03-24T00:55:15.785Z,2.29
2018-03-24T00:57:49.695Z,2.15
2018-03-24T01:00:18.743Z,2.13
2018-03-24T01:02:48.005Z,2.08
2018-03-24T01:05:17.249Z,2.19
2018-03-24T01:07:46.191Z,2.13
2018-03-24T01:10:15.125Z,2.04
2018-03-24T01:12:44.077Z,2.03
2018-03-24T01:15:13.157Z,2.01
2018-03-24T01:17:42.058Z,1.87
2018-03-24T01:20:15.191Z,1.85
2018-03-24T01:22:44.181Z,1.77
2018-03-24T01:25:13.241Z,1.67
2018-03-24T01:27:42.234Z,1.63
2018-03-24T01:30:11.482Z,1.61
2018-03-24T01:32:40.461Z,1.60
2018-03-24T01:35:09.369Z,1.47
2018-03-24T01:37:38.391Z,1.37
2018-03-24T01:40:07.649Z,1.39
2018-03-24T01:42:36.621Z,1.36
2018-03-24T01:45:05.617Z,1.32
2018-03-24T01:47:34.833Z,1.28
2018-03-24T01:50:04.065Z,1.27
2018-03-24T01:52:33.128Z,1.26
2018-03-24T01:55:04.414Z,1.27
2018-03-24T01:57:33.361Z,1.22
2018-03-24T02:00:02.396Z,1.22
2018-03-24T02:02:31.371Z,1.28
2018-03-24T02:05:06.892Z,1.28
2018-03-24T02:07:36.653Z,1.19
2018-03-24T02:10:05.741Z,1.11
2018-03-24T02:12:34.720Z,1.13
2018-03-24T02:15:05.188Z,1.05
2018-03-24T02:17:34.312Z,1.02
2018-03-24T02:20:03.651Z,1.02
2018-03-24T02:22:33.669Z,0.96
2018-03-24T02:25:02.816Z,0.85
2018-03-24T02:27:31.762Z,0.93
2018-03-24T02:30:02.046Z,0.95
2018-03-24T02:32:31.079Z,0.88
2018-03-24T02:35:00.040Z,0.88
2018-03-24T02:37:29.183Z,0.96
2018-03-24T02:40:06.545Z,0.85
2018-03-24T02:42:54.466Z,0.88
2018-03-24T02:45:24.875Z,0.76
2018-03-24T02:47:55.199Z,0.64
2018-03-24T02:50:24.498Z,0.58
2018-03-24T02:52:53.834Z,0.55
2018-03-24T02:55:25.122Z,0.57
2018-03-24T02:57:55.334Z,0.54
2018-03-24T03:00:25.125Z,0.57
2018-03-24T03:02:54.888Z,0.50
2018-03-24T03:05:26.136Z,0.52
2018-03-24T03:07:56.982Z,0.55
2018-03-24T03:10:27.668Z,0.62
2018-03-24T03:12:57.568Z,0.51
2018-03-24T03:15:26.562Z,0.53
2018-03-24T03:17:55.667Z,0.54
2018-03-24T03:20:25.930Z,0.54
2018-03-24T03:22:54.927Z,0.61
2018-03-24T03:25:25.029Z,0.54
2018-03-24T03:27:54.402Z,0.45
2018-03-24T03:30:23.753Z,0.40
2018-03-24T03:32:52.770Z,0.48
2018-03-24T03:35:21.789Z,0.51
2018-03-24T03:37:50.817Z,0.47
2018-03-24T03:40:20.191Z,0.42
2018-03-24T03:42:49.194Z,0.51
2018-03-24T03:45:19.286Z,0.50
2018-03-24T03:47:48.306Z,0.41
2018-03-24T03:50:22.563Z,0.44
2018-03-24T03:52:51.580Z,0.41
2018-03-24T03:55:20.550Z,0.38
2018-03-24T03:57:49.703Z,0.34
2018-03-24T04:00:18.757Z,0.35
2018-03-24T04:02:48.150Z,0.42
2018-03-24T04:05:17.187Z,0.52
2018-03-24T04:07:46.081Z,0.43
2018-03-24T04:10:15.066Z,0.43
2018-03-24T04:12:44.164Z,0.36
2018-03-24T04:15:14.525Z,0.39
2018-03-24T04:17:43.525Z,0.36
2018-03-24T04:20:12.485Z,0.41
2018-03-24T04:22:41.521Z,0.40
2018-03-24T04:25:10.633Z,0.35
2018-03-24T04:27:39.800Z,0.38
2018-03-24T04:30:09.296Z,0.31
2018-03-24T04:32:38.564Z,0.35
2018-03-24T04:35:07.661Z,0.36
2018-03-24T04:37:36.697Z,0.29
2018-03-24T04:40:06.050Z,0.23
2018-03-24T04:42:36.062Z,0.29
2018-03-24T04:45:05.188Z,0.26
2018-03-24T04:47:38.078Z,0.19
2018-03-24T04:50:07.135Z,0.31
2018-03-24T04:52:36.242Z,0.27
2018-03-24T04:55:05.252Z,0.29
2018-03-24T04:57:35.538Z,0.30
2018-03-24T05:00:04.638Z,0.32
2018-03-24T05:02:33.637Z,0.31
2018-03-24T05:05:02.783Z,0.18
2018-03-24T05:07:32.248Z,0.11
2018-03-24T05:10:01.454Z,0.14
2018-03-24T05:12:36.563Z,0.18
2018-03-24T05:15:05.743Z,0.24
2018-03-24T05:17:34.842Z,0.21
2018-03-24T05:20:03.888Z,0.18
2018-03-24T05:22:32.957Z,0.12
2018-03-24T05:25:02.037Z,0.19
2018-03-24T05:27:31.496Z,0.12
2018-03-24T05:30:00.762Z,0.05
2018-03-24T05:32:29.758Z,0.13
2018-03-24T05:34:58.750Z,0.11
2018-03-24T05:37:28.173Z,0.13
2018-03-24T05:39:57.184Z,0.12
2018-03-24T05:42:26.263Z,0.03
2018-03-24T05:44:55.414Z,0.13
2018-03-24T05:47:24.958Z,0.04
2018-03-24T05:49:54.180Z,0.13
2018-03-24T05:52:23.194Z,0.06
2018-03-24T05:54:53.612Z,0.03
2018-03-24T05:57:24.240Z,-0.03
2018-03-24T05:59:53.704Z,0.01
2018-03-24T06:02:23.059Z,0.08
2018-03-24T06:04:53.436Z,0.12
2018-03-24T06:07:23.017Z,0.09
2018-03-24T06:09:52.335Z,0.09
2018-03-24T06:12:21.382Z,0.18
2018-03-24T06:14:50.378Z,0.21
2018-03-24T06:17:19.421Z,0.27
2018-03-24T06:19:48.692Z,0.34
2018-03-24T06:22:17.924Z,0.29
2018-03-24T06:24:47.449Z,0.35
2018-03-24T06:27:16.984Z,0.43
2018-03-24T06:29:47.452Z,0.45
2018-03-24T06:32:16.560Z,0.54
2018-03-24T06:34:45.744Z,0.63
2018-03-24T06:37:14.805Z,0.62
2018-03-24T06:39:44.089Z,0.56
2018-03-24T06:42:13.133Z,0.90
2018-03-24T06:44:42.093Z,0.70
2018-03-24T06:47:11.791Z,0.79
2018-03-24T06:49:40.937Z,0.84
2018-03-24T06:52:09.932Z,0.97
2018-03-24T06:54:40.347Z,0.97
2018-03-24T06:57:09.394Z,1.15
2018-03-24T06:59:38.498Z,1.21
2018-03-24T07:02:07.737Z,1.28
2018-03-24T07:04:37.976Z,1.33
2018-03-24T07:07:06.953Z,1.51
2018-03-24T07:09:38.373Z,1.65
2018-03-24T07:12:09.342Z,1.82
2018-03-24T07:21:15.290Z,2.19
2018-03-24T07:23:44.638Z,2.27
2018-03-24T07:26:13.528Z,2.48
2018-03-24T07:28:42.523Z,2.78
2018-03-24T07:31:12.459Z,2.95
2018-03-24T07:33:41.754Z,3.24
2018-03-24T07:36:11.120Z,3.83
2018-03-24T07:38:40.100Z,4.84
2018-03-24T07:41:10.521Z,5.37
2018-03-24T07:43:39.775Z,5.78
2018-03-24T07:46:08.972Z,6.09
2018-03-24T07:48:38.055Z,6.23
2018-03-24T07:53:59.695Z,6.85
2018-03-24T07:56:29.313Z,6.89
2018-03-24T07:58:59.545Z,7.61
2018-03-24T08:04:36.277Z,9.73
2018-03-24T08:07:05.314Z,10.30
2018-03-24T08:09:35.444Z,11.36
2018-03-24T08:12:06.009Z,12.11
2018-03-24T08:14:35.181Z,12.75
2018-03-24T08:17:05.966Z,12.13
2018-03-24T08:19:36.226Z,12.18
2018-03-24T08:22:09.413Z,12.87
2018-03-24T08:24:38.403Z,12.59
2018-03-24T08:27:08.365Z,12.94
2018-03-24T08:29:39.070Z,12.37
2018-03-24T08:32:08.309Z,12.70
2018-03-24T08:34:37.383Z,12.47
2018-03-24T08:37:10.701Z,15.96
2018-03-24T08:39:39.891Z,14.25
2018-03-24T08:42:08.943Z,14.53
2018-03-24T08:44:38.027Z,13.88
2018-03-24T08:47:08.767Z,12.88
2018-03-24T08:49:37.980Z,14.20
2018-03-24T08:52:23.955Z,13.51
2018-03-24T08:54:53.567Z,15.11
2018-03-24T08:57:23.075Z,14.38
2018-03-24T08:59:52.087Z,15.13
2018-03-24T09:02:21.478Z,16.52
2018-03-24T09:04:50.918Z,15.23
2018-03-24T09:07:20.856Z,16.18
2018-03-24T09:09:50.205Z,15.45
2018-03-24T09:12:20.202Z,16.22
2018-03-24T09:14:49.822Z,17.46
2018-03-24T09:17:19.951Z,16.45
2018-03-24T09:20:21.175Z,16.84
2018-03-24T09:22:50.293Z,17.04
2018-03-24T09:25:22.541Z,17.33
2018-03-24T09:27:52.045Z,18.77
2018-03-24T09:30:21.053Z,17.85
2018-03-24T09:32:51.161Z,17.88
2018-03-24T09:35:32.865Z,17.25
2018-03-24T09:38:13.223Z,16.90
2018-03-24T09:40:42.431Z,17.84
2018-03-24T09:43:12.133Z,17.53
2018-03-24T09:45:41.206Z,16.59
2018-03-24T09:48:10.863Z,17.27
2018-03-24T09:50:40.005Z,17.31
2018-03-24T09:53:09.123Z,16.13
2018-03-24T09:55:38.841Z,17.40
2018-03-24T09:58:08.084Z,17.18
2018-03-24T10:00:37.037Z,15.23
2018-03-24T10:03:06.678Z,15.30
2018-03-24T10:05:35.985Z,14.93
2018-03-24T10:08:05.501Z,13.97
2018-03-24T10:10:37.220Z,14.69
2018-03-24T10:13:06.371Z,14.08
2018-03-24T10:15:36.568Z,13.73
2018-03-24T10:18:06.044Z,14.00
2018-03-24T10:20:38.714Z,13.47
2018-03-24T10:23:08.662Z,14.11
2018-03-24T10:25:37.691Z,13.88
2018-03-24T10:28:06.883Z,15.44
2018-03-24T10:30:36.224Z,15.03
2018-03-24T10:33:06.053Z,15.69
2018-03-24T10:35:35.303Z,14.28
2018-03-24T10:38:10.573Z,14.92
2018-03-24T10:40:39.767Z,14.40
2018-03-24T10:43:13.425Z,14.57
2018-03-24T10:45:44.010Z,13.97
2018-03-24T10:48:13.051Z,13.03
2018-03-24T10:50:42.202Z,13.41
2018-03-24T10:53:11.563Z,13.17
2018-03-24T10:55:40.885Z,13.31
2018-03-24T10:58:10.137Z,13.36
2018-03-24T11:00:39.951Z,13.21
2018-03-24T11:03:08.958Z,13.25
2018-03-24T11:05:38.037Z,12.84
2018-03-24T11:08:07.496Z,12.74
2018-03-24T11:10:36.643Z,12.46
2018-03-24T11:13:05.677Z,12.08
2018-03-24T11:15:35.990Z,12.38
2018-03-24T11:18:05.189Z,11.76
2018-03-24T11:20:34.250Z,11.13
2018-03-24T11:23:07.273Z,11.37
2018-03-24T11:25:36.277Z,11.65
2018-03-24T11:28:05.565Z,11.88
2018-03-24T11:30:34.823Z,11.69
2018-03-24T11:33:03.777Z,12.04
2018-03-24T11:35:32.750Z,11.83
2018-03-24T11:38:02.105Z,12.67
2018-03-24T11:40:31.261Z,12.63
2018-03-24T11:43:01.327Z,12.56
2018-03-24T11:45:30.666Z,11.76
2018-03-24T11:47:59.944Z,11.62
2018-03-24T11:50:29.053Z,11.80
2018-03-24T11:52:59.501Z,11.95
2018-03-24T11:55:28.451Z,11.90
2018-03-24T11:57:57.479Z,11.34
2018-03-24T12:00:26.871Z,11.57
2018-03-24T12:02:55.969Z,11.87
2018-03-24T12:05:25.182Z,11.68
2018-03-24T12:07:54.593Z,11.72
2018-03-24T12:10:23.560Z,12.04
2018-03-24T12:12:52.758Z,12.05
2018-03-24T12:15:23.032Z,12.11
2018-03-24T12:17:52.041Z,11.77
2018-03-24T12:20:21.059Z,11.70
2018-03-24T12:22:50.071Z,11.79
2018-03-24T12:25:19.309Z,11.75
2018-03-24T12:27:48.345Z,11.24
2018-03-24T12:30:20.754Z,11.18
2018-03-24T12:32:49.776Z,10.79
2018-03-24T12:35:18.731Z,11.24
2018-03-24T12:37:47.961Z,11.30
2018-03-24T12:40:16.900Z,11.54
2018-03-24T12:42:45.880Z,11.24
2018-03-24T12:45:17.414Z,11.50
2018-03-24T12:47:46.472Z,11.71
2018-03-24T12:50:15.418Z,11.58
2018-03-24T12:52:44.614Z,11.43
2018-03-24T12:55:13.836Z,11.39
2018-03-24T12:57:42.813Z,11.29
2018-03-24T13:00:12.109Z,11.33
2018-03-24T13:02:41.101Z,11.74
2018-03-24T13:05:10.245Z,11.95
2018-03-24T13:07:39.604Z,12.43
2018-03-24T13:10:08.725Z,12.62
2018-03-24T13:12:37.882Z,12.51
2018-03-24T13:15:07.182Z,12.86
2018-03-24T13:17:36.104Z,12.24
2018-03-24T13:20:05.103Z,12.22
2018-03-24T13:22:34.366Z,12.53
2018-03-24T13:25:03.483Z,12.39
2018-03-24T13:27:32.448Z,13.04
2018-03-24T13:30:01.744Z,13.33
2018-03-24T13:32:30.871Z,12.82
2018-03-24T13:34:59.918Z,12.79
2018-03-24T13:37:30.256Z,12.93
2018-03-24T13:39:59.252Z,12.36
2018-03-24T13:42:28.230Z,13.08
2018-03-24T13:44:57.506Z,13.05
2018-03-24T13:47:27.994Z,12.93
2018-03-24T13:49:57.016Z,12.68
2018-03-24T13:52:26.278Z,12.29
2018-03-24T13:54:56.102Z,12.78
2018-03-24T13:57:25.047Z,12.73
2018-03-24T13:59:54.387Z,13.82
2018-03-24T14:02:24.771Z,14.61
2018-03-24T14:04:53.862Z,15.43
2018-03-24T14:07:24.237Z,16.22
2018-03-24T14:09:53.228Z,16.34
2018-03-24T14:12:22.409Z,17.55
2018-03-24T14:14:51.796Z,18.13
2018-03-24T14:17:21.812Z,17.99
2018-03-24T14:19:50.842Z,17.63
2018-03-24T14:22:20.175Z,18.91
2018-03-24T14:24:49.070Z,17.87
2018-03-24T14:27:18.109Z,18.62
2018-03-24T14:29:47.475Z,18.18
2018-03-24T14:32:16.574Z,17.66
2018-03-24T14:34:45.681Z,17.43
2018-03-24T14:37:15.821Z,17.04
2018-03-24T14:39:44.972Z,16.16
2018-03-24T14:42:14.057Z,16.09
2018-03-24T14:44:44.188Z,15.68
2018-03-24T14:47:13.340Z,16.73
2018-03-24T14:49:42.322Z,16.99
2018-03-24T14:52:11.629Z,17.40
2018-03-24T14:54:40.520Z,17.99
2018-03-24T14:57:09.538Z,18.04
2018-03-24T14:59:39.024Z,17.60
2018-03-24T15:02:08.061Z,17.48
2018-03-24T15:04:38.921Z,18.35
2018-03-24T15:07:08.259Z,18.27
2018-03-24T15:09:37.693Z,18.78
2018-03-24T15:12:06.740Z,18.87
2018-03-24T15:14:36.006Z,19.35
2018-03-24T15:17:05.080Z,18.77
2018-03-24T15:19:34.129Z,18.95
2018-03-24T15:22:03.475Z,18.95
2018-03-24T15:24:32.526Z,19.44
2018-03-24T15:27:01.474Z,19.85
2018-03-24T15:33:49.686Z,19.01
2018-03-24T15:36:58.409Z,18.63
2018-03-24T15:39:27.496Z,17.89
2018-03-24T15:41:56.753Z,18.10
2018-03-24T15:44:25.736Z,18.23
2018-03-24T15:46:54.697Z,18.31
2018-03-24T15:49:23.678Z,18.31
2018-03-24T15:51:54.155Z,17.92
2018-03-24T15:54:23.219Z,17.94
2018-03-24T15:56:52.344Z,17.51
2018-03-24T15:59:21.812Z,17.71
2018-03-24T16:01:50.811Z,17.98
2018-03-24T16:04:20.059Z,17.37
2018-03-24T16:06:51.571Z,16.70
2018-03-24T16:09:20.700Z,17.15
2018-03-24T16:11:49.792Z,17.41
2018-03-24T16:14:20.119Z,16.79
2018-03-24T16:16:49.090Z,16.69
2018-03-24T16:19:18.131Z,15.78
2018-03-24T16:21:47.102Z,15.21
2018-03-24T16:24:16.442Z,14.47
2018-03-24T16:26:45.417Z,13.88
2018-03-24T16:29:14.449Z,13.42
2018-03-24T16:31:43.722Z,13.01
2018-03-24T16:34:12.715Z,12.59
2018-03-24T16:36:41.667Z,12.21
2018-03-24T16:39:12.105Z,11.96
2018-03-24T16:41:41.077Z,11.74
2018-03-24T16:44:16.000Z,11.55
2018-03-24T16:46:45.302Z,11.44
2018-03-24T16:49:14.272Z,11.09
2018-03-24T16:51:43.239Z,11.05
2018-03-24T16:54:12.672Z,10.88
2018-03-24T16:56:41.708Z,10.79
2018-03-24T16:59:10.750Z,10.64
2018-03-24T17:01:39.701Z,10.49
2018-03-24T17:04:09.065Z,10.43
2018-03-24T17:06:38.072Z,10.21
2018-03-24T17:09:10.056Z,9.99
2018-03-24T17:11:39.296Z,10.04
2018-03-24T17:14:10.529Z,9.89
2018-03-24T17:16:39.599Z,9.70
2018-03-24T17:19:09.065Z,9.60
2018-03-24T17:21:38.126Z,9.59
2018-03-24T17:24:08.005Z,9.61
2018-03-24T17:26:37.404Z,9.37
2018-03-24T17:29:06.594Z,9.29
2018-03-24T17:31:35.634Z,9.21
2018-03-24T17:34:04.961Z,9.05
2018-03-24T17:36:33.934Z,9.07
2018-03-24T17:39:03.075Z,8.96
2018-03-24T17:41:32.423Z,8.83
2018-03-24T17:44:01.571Z,8.68
2018-03-24T17:46:30.658Z,8.59
2018-03-24T17:49:00.175Z,8.64
2018-03-24T17:51:29.101Z,8.47
2018-03-24T17:53:58.163Z,8.34
2018-03-24T17:56:27.523Z,8.20
2018-03-24T17:58:56.689Z,8.08
2018-03-24T18:01:25.870Z,7.98
2018-03-24T18:03:55.105Z,7.92
2018-03-24T18:06:24.199Z,7.74
2018-03-24T18:08:53.209Z,7.70
2018-03-24T18:11:22.608Z,7.58
2018-03-24T18:13:51.868Z,7.55
2018-03-24T18:16:21.924Z,7.49
2018-03-24T18:18:52.250Z,7.54
2018-03-24T18:21:21.191Z,7.60
2018-03-24T18:23:50.216Z,7.54
2018-03-24T18:26:22.710Z,7.50
2018-03-24T18:28:51.708Z,7.42
2018-03-24T18:31:20.903Z,7.42
2018-03-24T18:33:50.267Z,7.23
2018-03-24T18:36:19.356Z,7.13
2018-03-24T18:38:48.411Z,6.95
2018-03-24T18:41:19.982Z,6.98
2018-03-24T18:43:48.996Z,6.86
2018-03-24T18:46:18.102Z,6.60
2018-03-24T18:48:47.318Z,6.61
2018-03-24T18:51:16.435Z,6.52
2018-03-24T18:53:45.477Z,6.35
2018-03-24T18:56:15.852Z,6.25
2018-03-24T18:58:44.952Z,6.26
2018-03-24T19:01:13.879Z,6.11
2018-03-24T19:03:43.243Z,6.14
2018-03-24T19:06:12.242Z,6.00
2018-03-24T19:08:41.331Z,5.93
2018-03-24T19:11:10.668Z,5.88
2018-03-24T19:13:39.687Z,5.93
2018-03-24T19:16:08.831Z,5.77
2018-03-24T19:18:38.164Z,5.53
2018-03-24T19:21:08.149Z,5.50
2018-03-24T19:23:37.132Z,5.41
2018-03-24T19:26:06.431Z,5.61
2018-03-24T19:28:35.392Z,5.55
2018-03-24T19:31:04.521Z,5.45
2018-03-24T19:33:37.456Z,5.48
2018-03-24T19:36:06.696Z,5.35
2018-03-24T19:38:35.797Z,5.23
2018-03-24T19:41:05.372Z,5.13
2018-03-24T19:43:34.401Z,4.87
2018-03-24T19:46:03.603Z,4.72
2018-03-24T19:48:34.157Z,4.60
2018-03-24T19:51:03.297Z,4.61
2018-03-24T19:53:32.418Z,4.63
2018-03-24T19:56:02.898Z,4.65
2018-03-24T19:58:32.045Z,4.75
2018-03-24T20:01:01.083Z,4.67
2018-03-24T20:03:31.564Z,4.78
2018-03-24T20:06:00.635Z,4.64
2018-03-24T20:08:29.752Z,4.50
2018-03-24T20:11:04.243Z,4.34
2018-03-24T20:13:33.456Z,4.23
2018-03-24T20:16:03.911Z,4.25
2018-03-24T20:18:33.238Z,4.32
2018-03-24T20:21:02.393Z,4.24
2018-03-24T20:23:31.586Z,4.25
2018-03-24T20:26:01.826Z,4.17
2018-03-24T20:28:30.816Z,4.14
2018-03-24T20:31:00.126Z,3.93
2018-03-24T20:33:31.157Z,3.95
2018-03-24T20:36:00.152Z,4.00
2018-03-24T20:38:29.143Z,4.04
2018-03-24T20:41:03.698Z,4.05
2018-03-24T20:43:32.866Z,3.91
2018-03-24T20:46:01.802Z,3.92
2018-03-24T20:48:31.019Z,4.10
2018-03-24T20:51:00.060Z,4.17
2018-03-24T20:53:29.065Z,4.22
2018-03-24T20:55:58.404Z,3.93
2018-03-24T20:58:27.449Z,3.86
2018-03-24T21:00:57.029Z,3.96
2018-03-24T21:03:28.162Z,3.82
2018-03-24T21:05:57.194Z,3.79
2018-03-24T21:08:26.404Z,3.67
2018-03-24T21:10:55.917Z,3.80
2018-03-24T21:13:25.078Z,3.78
2018-03-24T21:15:54.145Z,3.75
2018-03-24T21:18:23.504Z,3.76
2018-03-24T21:20:52.739Z,3.80
2018-03-24T21:23:21.712Z,3.78
2018-03-24T21:25:51.074Z,3.80
2018-03-24T21:28:20.133Z,3.86
2018-03-24T21:30:49.203Z,3.84
2018-03-24T21:33:18.555Z,3.88
2018-03-24T21:35:48.599Z,3.83
2018-03-24T21:38:17.677Z,3.59
2018-03-24T21:40:49.062Z,3.55
2018-03-24T21:43:18.219Z,3.53
2018-03-24T21:45:47.530Z,3.54
2018-03-24T21:48:16.829Z,3.51
2018-03-24T21:50:45.923Z,3.50
2018-03-24T21:53:14.961Z,3.44
2018-03-24T21:55:44.327Z,3.37
2018-03-24T21:58:13.311Z,3.32
2018-03-24T22:00:43.840Z,3.28
2018-03-24T22:03:13.132Z,3.21
2018-03-24T22:05:42.212Z,3.11
2018-03-24T22:08:11.530Z,3.14
2018-03-24T22:10:40.896Z,3.12
2018-03-24T22:13:09.993Z,3.16
2018-03-24T22:15:39.025Z,3.11
2018-03-24T22:18:08.290Z,3.07
2018-03-24T22:20:37.285Z,2.99
2018-03-24T22:23:06.290Z,3.05
2018-03-24T22:25:35.615Z,3.01
2018-03-24T22:28:04.670Z,2.88
2018-03-24T22:30:33.672Z,2.86
2018-03-24T22:33:02.957Z,2.74
2018-03-24T22:35:32.090Z,2.73
2018-03-24T22:38:01.098Z,2.75
2018-03-24T22:40:30.565Z,2.76
2018-03-24T22:42:59.584Z,2.68
2018-03-24T22:45:28.781Z,2.66
2018-03-24T22:47:58.178Z,2.50
2018-03-24T22:50:27.171Z,2.49
2018-03-24T22:52:56.157Z,2.48
2018-03-24T22:55:28.435Z,2.50
2018-03-24T22:57:58.290Z,2.52
2018-03-24T23:00:27.312Z,2.44
2018-03-24T23:02:57.567Z,2.47
2018-03-24T23:05:26.500Z,2.27
2018-03-24T23:07:55.557Z,2.24
2018-03-24T23:10:24.824Z,2.23
2018-03-24T23:12:53.749Z,2.37
2018-03-24T23:15:22.869Z,2.24
2018-03-24T23:17:52.260Z,2.16
2018-03-24T23:20:21.396Z,2.19
2018-03-24T23:22:50.515Z,2.21
2018-03-24T23:25:19.529Z,2.02
2018-03-24T23:27:48.492Z,1.97
2018-03-24T23:30:17.903Z,1.89
2018-03-24T23:32:46.987Z,1.86
2018-03-24T23:35:15.993Z,1.77
2018-03-24T23:37:45.090Z,1.88
2018-03-24T23:40:14.082Z,1.89
2018-03-24T23:42:44.805Z,1.82
2018-03-24T23:45:14.293Z,1.77
2018-03-24T23:47:43.310Z,1.78
2018-03-24T23:50:13.669Z,1.74
2018-03-24T23:52:42.654Z,1.82
2018-03-24T23:55:11.683Z,1.66
2018-03-24T23:57:40.718Z,1.64
